createdAt,value
2022-10-06T00:01:17.271Z,102426.91
2022-10-06T00:03:46.761Z,102437.25
2022-10-06T00:06:16.465Z,102440.63
2022-10-06T00:08:45.045Z,102439.75
2022-10-06T00:11:15.559Z,102445.72
2022-10-06T00:13:44.025Z,102450.88
2022-10-06T00:16:17.638Z,102442.22
2022-10-06T00:18:45.730Z,102457.97
2022-10-06T00:21:13.142Z,102451.66
2022-10-06T00:23:42.350Z,102466.50
2022-10-06T00:26:17.570Z,102469.72
2022-10-06T00:28:50.519Z,102466.91
2022-10-06T00:31:19.762Z,102469.47
2022-10-06T00:33:48.932Z,102469.28
2022-10-06T00:36:18.850Z,102466.72
2022-10-06T00:38:47.559Z,102468.44
2022-10-06T00:41:17.335Z,102475.47
2022-10-06T00:43:53.372Z,102465.78
2022-10-06T00:46:45.330Z,102471.91
2022-10-06T00:49:23.360Z,102476.34
2022-10-06T00:52:14.391Z,102473.72
2022-10-06T00:54:43.183Z,102477.13
2022-10-06T00:57:11.748Z,102487.38
2022-10-06T00:59:41.810Z,102481.28
2022-10-06T01:02:35.138Z,102480.22
2022-10-06T01:05:05.685Z,102486.25
2022-10-06T01:07:33.322Z,102486.19
2022-10-06T01:10:01.191Z,102488.56
2022-10-06T01:12:29.925Z,102498.38
2022-10-06T01:14:59.405Z,102493.81
2022-10-06T01:17:37.060Z,102499.03
2022-10-06T01:20:11.622Z,102503.47
2022-10-06T01:22:44.956Z,102503.56
2022-10-06T01:25:18.912Z,102515.34
2022-10-06T01:27:54.098Z,102513.44
2022-10-06T01:30:34.022Z,102512.72
2022-10-06T01:33:02.597Z,102511.78
2022-10-06T01:35:30.728Z,102511.66
2022-10-06T01:38:02.419Z,102511.56
2022-10-06T01:40:31.427Z,102510.38
2022-10-06T01:43:01.503Z,102512.09
2022-10-06T01:45:29.369Z,102512.78
2022-10-06T01:47:57.808Z,102518.16
2022-10-06T01:50:25.494Z,102518.00
2022-10-06T01:52:57.533Z,102511.84
2022-10-06T01:55:26.070Z,102515.22
2022-10-06T01:57:55.293Z,102509.06
2022-10-06T02:00:22.560Z,102519.34
2022-10-06T02:02:50.900Z,102518.38
2022-10-06T02:05:21.523Z,102519.03
2022-10-06T02:07:54.427Z,102519.88
2022-10-06T02:10:22.475Z,102516.38
2022-10-06T02:12:53.013Z,102523.16
2022-10-06T02:15:22.356Z,102528.31
2022-10-06T02:17:51.480Z,102528.31
2022-10-06T02:20:20.633Z,102530.91
2022-10-06T02:22:48.047Z,102528.16
2022-10-06T02:25:17.353Z,102524.69
2022-10-06T02:27:45.203Z,102525.59
2022-10-06T02:30:18.928Z,102523.94
2022-10-06T02:32:48.251Z,102528.78
2022-10-06T02:35:15.759Z,102525.84
2022-10-06T02:37:44.565Z,102531.91
2022-10-06T02:40:16.841Z,102532.72
2022-10-06T02:42:46.038Z,102527.50
2022-10-06T02:45:17.500Z,102523.19
2022-10-06T02:47:47.916Z,102524.00
2022-10-06T02:50:15.611Z,102523.19
2022-10-06T02:52:43.029Z,102529.06
2022-10-06T02:55:12.889Z,102529.84
2022-10-06T02:57:41.544Z,102538.22
2022-10-06T03:00:12.067Z,102528.50
2022-10-06T03:02:39.953Z,102539.72
2022-10-06T03:05:07.474Z,102543.31
2022-10-06T03:07:35.297Z,102550.09
2022-10-06T03:10:04.407Z,102549.13
2022-10-06T03:12:34.276Z,102554.47
2022-10-06T03:15:01.716Z,102556.06
2022-10-06T03:17:29.652Z,102562.25
2022-10-06T03:19:58.103Z,102555.13
2022-10-06T03:22:26.961Z,102555.31
2022-10-06T03:24:59.578Z,102554.53
2022-10-06T03:27:27.093Z,102552.94
2022-10-06T03:29:59.830Z,102552.94
2022-10-06T03:32:28.901Z,102552.81
2022-10-06T03:34:56.791Z,102555.31
2022-10-06T03:37:25.757Z,102558.81
2022-10-06T03:39:53.560Z,102554.31
2022-10-06T03:42:21.719Z,102562.78
2022-10-06T03:44:49.275Z,102558.63
2022-10-06T03:47:19.383Z,102560.22
2022-10-06T03:49:47.590Z,102565.16
2022-10-06T03:52:18.010Z,102565.94
2022-10-06T03:54:48.426Z,102571.03
2022-10-06T03:57:17.028Z,102584.06
2022-10-06T03:59:45.302Z,102582.25
2022-10-06T04:02:15.183Z,102588.94
2022-10-06T04:04:45.870Z,102584.41
2022-10-06T04:07:13.260Z,102589.69
2022-10-06T04:09:41.019Z,102591.66
2022-10-06T04:12:11.304Z,102595.88
2022-10-06T04:14:39.741Z,102597.44
2022-10-06T04:17:09.674Z,102602.78
2022-10-06T04:19:40.679Z,102602.72
2022-10-06T04:22:08.439Z,102607.88
2022-10-06T04:24:37.400Z,102618.22
2022-10-06T04:27:23.737Z,102618.16
2022-10-06T04:30:06.002Z,102618.91
2022-10-06T04:32:36.159Z,102620.50
2022-10-06T04:35:04.134Z,102624.72
2022-10-06T04:37:32.796Z,102624.78
2022-10-06T04:40:00.779Z,102618.66
2022-10-06T04:42:35.045Z,102618.66
2022-10-06T04:45:09.924Z,102621.16
2022-10-06T04:47:40.263Z,102626.31
2022-10-06T04:50:08.192Z,102619.25
2022-10-06T04:52:41.363Z,102624.31
2022-10-06T04:55:11.191Z,102618.00
2022-10-06T04:57:39.838Z,102628.41
2022-10-06T05:00:26.504Z,102619.72
2022-10-06T05:02:56.682Z,102617.59
2022-10-06T05:05:24.608Z,102620.91
2022-10-06T05:07:54.207Z,102623.50
2022-10-06T05:10:22.367Z,102628.84
2022-10-06T05:12:55.817Z,102632.41
2022-10-06T05:15:24.587Z,102633.44
2022-10-06T05:17:52.138Z,102636.03
2022-10-06T05:20:23.289Z,102642.22
2022-10-06T05:22:52.219Z,102642.22
2022-10-06T05:25:19.624Z,102647.50
2022-10-06T05:27:47.802Z,102642.91
2022-10-06T05:30:15.199Z,102641.06
2022-10-06T05:32:46.439Z,102644.38
2022-10-06T05:35:14.458Z,102646.78
2022-10-06T05:37:42.556Z,102656.38
2022-10-06T05:40:11.639Z,102658.09
2022-10-06T05:42:39.551Z,102655.19
2022-10-06T05:45:07.488Z,102663.00
2022-10-06T05:47:34.930Z,102665.84
2022-10-06T05:50:04.937Z,102669.91
2022-10-06T05:52:33.093Z,102670.75
2022-10-06T05:55:00.719Z,102677.25
2022-10-06T05:57:28.376Z,102674.59
2022-10-06T05:59:57.173Z,102675.19
2022-10-06T06:02:24.714Z,102675.34
2022-10-06T06:04:53.019Z,102674.22
2022-10-06T06:07:21.248Z,102672.81
2022-10-06T06:09:50.131Z,102676.31
2022-10-06T06:12:17.916Z,102679.66
2022-10-06T06:15:11.145Z,102684.19
2022-10-06T06:18:01.737Z,102683.44
2022-10-06T06:20:30.429Z,102686.31
2022-10-06T06:22:57.885Z,102692.69
2022-10-06T06:25:28.436Z,102688.06
2022-10-06T06:27:56.385Z,102689.28
2022-10-06T06:30:25.520Z,102693.22
2022-10-06T06:32:58.181Z,102689.66
2022-10-06T06:35:25.989Z,102696.59
2022-10-06T06:37:53.300Z,102700.81
2022-10-06T06:40:21.040Z,102699.84
2022-10-06T06:42:53.649Z,102698.81
2022-10-06T06:45:54.445Z,102704.25
2022-10-06T06:48:37.885Z,102706.88
2022-10-06T06:51:08.032Z,102704.00
2022-10-06T06:53:35.550Z,102710.44
2022-10-06T06:56:04.664Z,102705.47
2022-10-06T06:58:36.967Z,102705.69
2022-10-06T07:01:16.415Z,102711.13
2022-10-06T07:03:57.572Z,102703.31
2022-10-06T07:06:30.755Z,102704.97
2022-10-06T07:09:00.689Z,102703.94
2022-10-06T07:11:33.872Z,102708.94
2022-10-06T07:14:10.410Z,102720.78
2022-10-06T07:16:57.023Z,102725.56
2022-10-06T07:19:44.644Z,102723.25
2022-10-06T07:22:49.334Z,102726.19
2022-10-06T07:25:26.482Z,102728.22
2022-10-06T07:27:58.070Z,102729.28
2022-10-06T07:30:34.145Z,102723.16
2022-10-06T07:33:09.291Z,102738.22
2022-10-06T07:35:39.578Z,102745.31
2022-10-06T07:38:10.665Z,102749.69
2022-10-06T07:40:50.477Z,102756.69
2022-10-06T07:43:19.734Z,102756.63
2022-10-06T07:45:50.097Z,102760.03
2022-10-06T07:48:24.140Z,102769.56
2022-10-06T07:50:55.455Z,102770.34
2022-10-06T07:53:29.188Z,102770.16
2022-10-06T07:56:07.910Z,102773.53
2022-10-06T07:58:44.673Z,102780.53
2022-10-06T08:01:14.237Z,102774.16
2022-10-06T08:03:42.980Z,102783.78
2022-10-06T08:06:16.608Z,102781.72
2022-10-06T08:08:51.688Z,102778.84
2022-10-06T08:11:23.720Z,102785.78
2022-10-06T08:13:52.146Z,102786.50
2022-10-06T08:16:22.680Z,102788.19
2022-10-06T08:18:54.490Z,102790.84
2022-10-06T08:21:26.128Z,102784.28
2022-10-06T08:23:57.394Z,102778.81
2022-10-06T08:26:27.402Z,102789.50
2022-10-06T08:29:00.992Z,102789.34
2022-10-06T08:31:31.841Z,102789.41
2022-10-06T08:33:59.585Z,102783.97
2022-10-06T08:36:31.390Z,102791.06
2022-10-06T08:39:02.950Z,102792.78
2022-10-06T08:41:51.687Z,102795.22
2022-10-06T08:44:32.747Z,102792.25
2022-10-06T08:47:18.811Z,102796.56
2022-10-06T08:49:52.779Z,102797.16
2022-10-06T08:52:47.312Z,102793.34
2022-10-06T08:55:31.276Z,102793.25
2022-10-06T08:58:06.210Z,102799.28
2022-10-06T09:00:35.202Z,102799.28
2022-10-06T09:03:03.938Z,102804.59
2022-10-06T09:05:35.485Z,102808.09
2022-10-06T09:08:14.500Z,102808.03
2022-10-06T09:11:05.916Z,102807.34
2022-10-06T09:13:53.550Z,102811.47
2022-10-06T09:16:32.337Z,102812.25
2022-10-06T09:19:32.873Z,102814.72
2022-10-06T09:22:05.197Z,102815.81
2022-10-06T09:24:47.514Z,102814.63
2022-10-06T09:27:20.445Z,102820.66
2022-10-06T09:29:51.169Z,102807.13
2022-10-06T09:32:22.571Z,102818.03
2022-10-06T09:34:56.019Z,102820.69
2022-10-06T09:37:24.671Z,102820.69
2022-10-06T09:39:53.675Z,102824.31
2022-10-06T09:42:35.955Z,102819.94
2022-10-06T09:45:21.626Z,102822.50
2022-10-06T09:47:53.918Z,102817.22
2022-10-06T09:50:30.959Z,102826.09
2022-10-06T09:52:59.683Z,102824.28
2022-10-06T09:55:31.075Z,102818.88
2022-10-06T09:57:59.021Z,102815.19
2022-10-06T10:00:35.669Z,102814.22
2022-10-06T10:03:05.770Z,102811.41
2022-10-06T10:05:47.692Z,102813.44
2022-10-06T10:08:30.929Z,102818.16
2022-10-06T10:11:39.487Z,102810.00
2022-10-06T10:14:21.916Z,102805.47
2022-10-06T10:16:53.252Z,102813.63
2022-10-06T10:19:36.515Z,102803.63
2022-10-06T10:22:04.875Z,102802.16
2022-10-06T10:24:41.095Z,102801.53
2022-10-06T10:27:23.682Z,102802.44
2022-10-06T10:30:12.359Z,102800.53
2022-10-06T10:32:55.479Z,102803.72
2022-10-06T10:35:41.776Z,102798.75
2022-10-06T10:38:20.091Z,102797.06
2022-10-06T10:40:54.477Z,102790.66
2022-10-06T10:43:42.067Z,102801.38
2022-10-06T10:46:16.634Z,102800.53
2022-10-06T10:48:52.011Z,102789.16
2022-10-06T10:51:53.727Z,102791.22
2022-10-06T10:54:38.681Z,102785.97
2022-10-06T10:57:15.501Z,102782.44
2022-10-06T11:00:00.543Z,102789.59
2022-10-06T11:02:28.846Z,102781.44
2022-10-06T11:05:18.669Z,102775.22
2022-10-06T11:08:02.292Z,102774.25
2022-10-06T11:10:36.480Z,102781.25
2022-10-06T11:13:10.116Z,102774.91
2022-10-06T11:16:02.255Z,102776.44
2022-10-06T11:18:42.026Z,102769.28
2022-10-06T11:21:15.492Z,102769.09
2022-10-06T11:23:57.827Z,102772.44
2022-10-06T11:26:39.372Z,102768.84
2022-10-06T11:29:16.155Z,102761.09
2022-10-06T11:32:02.768Z,102760.34
2022-10-06T11:34:31.100Z,102757.16
2022-10-06T11:37:28.127Z,102752.97
2022-10-06T11:40:17.484Z,102748.63
2022-10-06T11:42:56.373Z,102749.50
2022-10-06T11:45:31.093Z,102747.47
2022-10-06T11:48:08.260Z,102740.63
2022-10-06T11:50:37.713Z,102747.75
2022-10-06T11:53:22.964Z,102744.06
2022-10-06T11:56:20.607Z,102741.22
2022-10-06T11:58:51.845Z,102741.94
2022-10-06T12:01:31.156Z,102723.19
2022-10-06T12:04:08.053Z,102724.56
2022-10-06T12:06:44.893Z,102720.94
2022-10-06T12:09:26.001Z,102723.50
2022-10-06T12:12:00.983Z,102728.00
2022-10-06T12:18:00.836Z,102718.63
2022-10-06T12:20:29.520Z,102712.41
2022-10-06T12:23:04.920Z,102706.09
2022-10-06T12:25:54.113Z,102695.47
2022-10-06T12:28:31.945Z,102700.72
2022-10-06T12:31:31.411Z,102686.78
2022-10-06T12:33:59.314Z,102689.41
2022-10-06T12:36:32.219Z,102685.75
2022-10-06T12:39:05.750Z,102686.81
2022-10-06T12:41:59.951Z,102678.84
2022-10-06T12:44:45.625Z,102670.91
2022-10-06T12:47:51.460Z,102672.75
2022-10-06T12:50:25.490Z,102668.31
2022-10-06T12:53:01.404Z,102668.38
2022-10-06T12:55:32.460Z,102660.50
2022-10-06T12:58:01.604Z,102659.84
2022-10-06T13:00:36.973Z,102658.19
2022-10-06T13:03:09.892Z,102659.97
2022-10-06T13:05:37.543Z,102655.69
2022-10-06T13:08:07.820Z,102657.53
2022-10-06T13:10:37.358Z,102654.88
2022-10-06T13:13:25.444Z,102644.34
2022-10-06T13:16:00.596Z,102643.47
2022-10-06T13:18:28.809Z,102646.06
2022-10-06T13:20:58.892Z,102636.31
2022-10-06T13:23:32.049Z,102638.13
2022-10-06T13:26:16.698Z,102633.81
2022-10-06T13:28:44.550Z,102634.72
2022-10-06T13:31:15.194Z,102627.63
2022-10-06T13:33:47.699Z,102616.19
2022-10-06T13:36:15.643Z,102616.19
2022-10-06T13:38:43.715Z,102613.53
2022-10-06T13:41:17.668Z,102615.28
2022-10-06T13:43:52.437Z,102614.41
2022-10-06T13:46:24.794Z,102608.19
2022-10-06T13:49:00.854Z,102604.63
2022-10-06T13:51:31.507Z,102601.06
2022-10-06T13:54:01.371Z,102596.66
2022-10-06T13:56:38.627Z,102608.16
2022-10-06T13:59:27.804Z,102601.13
2022-10-06T14:01:57.638Z,102594.06
2022-10-06T14:04:25.176Z,102599.31
2022-10-06T14:07:01.665Z,102595.81
2022-10-06T14:09:32.809Z,102598.44
2022-10-06T14:12:08.800Z,102596.69
2022-10-06T14:14:37.284Z,102594.91
2022-10-06T14:17:04.822Z,102580.75
2022-10-06T14:19:36.595Z,102579.00
2022-10-06T14:22:06.406Z,102571.91
2022-10-06T14:24:38.215Z,102579.88
2022-10-06T14:27:07.073Z,102575.50
2022-10-06T14:29:36.116Z,102571.91
2022-10-06T14:32:09.289Z,102572.81
2022-10-06T14:34:37.800Z,102579.91
2022-10-06T14:37:06.991Z,102574.56
2022-10-06T14:39:34.858Z,102567.47
2022-10-06T14:42:02.798Z,102571.94
2022-10-06T14:44:31.267Z,102580.78
2022-10-06T14:46:59.552Z,102577.28
2022-10-06T14:49:30.390Z,102578.16
2022-10-06T14:51:58.316Z,102576.41
2022-10-06T14:54:26.696Z,102564.03
2022-10-06T14:56:55.149Z,102571.06
2022-10-06T14:59:23.206Z,102560.53
2022-10-06T15:01:54.017Z,102565.84
2022-10-06T15:04:25.439Z,102557.88
2022-10-06T15:07:11.793Z,102556.97
2022-10-06T15:09:39.771Z,102555.22
2022-10-06T15:12:07.380Z,102544.63
2022-10-06T15:14:40.576Z,102549.03
2022-10-06T15:17:08.496Z,102544.63
2022-10-06T15:19:36.747Z,102547.25
2022-10-06T15:22:07.713Z,102540.19
2022-10-06T15:24:35.306Z,102536.66
2022-10-06T15:27:25.193Z,102534.03
2022-10-06T15:29:53.551Z,102532.25
2022-10-06T15:32:20.943Z,102529.56
2022-10-06T15:34:52.820Z,102528.72
2022-10-06T15:37:20.244Z,102525.19
2022-10-06T15:39:47.967Z,102526.09
2022-10-06T15:42:18.797Z,102521.66
2022-10-06T15:44:46.200Z,102519.88
2022-10-06T15:47:14.456Z,102513.69
2022-10-06T15:49:42.317Z,102520.75
2022-10-06T15:52:13.813Z,102514.56
2022-10-06T15:54:41.894Z,102511.03
2022-10-06T15:57:19.482Z,102505.75
2022-10-06T15:59:49.289Z,102510.16
2022-10-06T16:02:20.263Z,102510.13
2022-10-06T16:05:04.745Z,102501.28
2022-10-06T16:07:34.419Z,102506.59
2022-10-06T16:10:01.943Z,102495.13
2022-10-06T16:12:30.263Z,102494.22
2022-10-06T16:14:57.700Z,102498.69
2022-10-06T16:17:27.566Z,102496.00
2022-10-06T16:19:54.930Z,102487.16
2022-10-06T16:22:22.878Z,102486.28
2022-10-06T16:24:51.000Z,102482.75
2022-10-06T16:27:18.849Z,102489.81
2022-10-06T16:29:46.345Z,102488.94
2022-10-06T16:32:14.091Z,102487.16
2022-10-06T16:34:41.430Z,102480.13
2022-10-06T16:37:09.208Z,102482.72
2022-10-06T16:39:36.944Z,102484.44
2022-10-06T16:42:04.599Z,102487.03
2022-10-06T16:44:32.001Z,102478.19
2022-10-06T16:47:00.314Z,102484.38
2022-10-06T16:49:28.379Z,102479.97
2022-10-06T16:51:55.921Z,102484.34
2022-10-06T16:54:23.411Z,102479.91
2022-10-06T16:56:55.111Z,102479.84
2022-10-06T16:59:26.144Z,102485.13
2022-10-06T17:01:56.916Z,102486.00
2022-10-06T17:04:25.630Z,102485.06
2022-10-06T17:06:55.732Z,102478.84
2022-10-06T17:09:25.015Z,102481.38
2022-10-06T17:11:58.503Z,102476.16
2022-10-06T17:14:30.543Z,102483.19
2022-10-06T17:17:00.183Z,102477.81
2022-10-06T17:19:29.642Z,102480.34
2022-10-06T17:21:59.362Z,102485.59
2022-10-06T17:24:29.314Z,102490.78
2022-10-06T17:26:59.158Z,102484.59
2022-10-06T17:29:29.217Z,102481.03
2022-10-06T17:32:00.300Z,102493.19
2022-10-06T17:34:33.486Z,102493.13
2022-10-06T17:37:03.208Z,102488.69
2022-10-06T17:39:31.016Z,102495.88
2022-10-06T17:42:02.530Z,102487.13
2022-10-06T17:44:31.281Z,102493.19
2022-10-06T17:47:00.615Z,102492.28
2022-10-06T17:49:34.821Z,102493.16
2022-10-06T17:52:04.524Z,102491.38
2022-10-06T17:54:32.580Z,102493.91
2022-10-06T17:57:00.912Z,102496.53
2022-10-06T17:59:30.896Z,102492.06
2022-10-06T18:02:05.016Z,102493.66
2022-10-06T18:04:35.345Z,102493.84
2022-10-06T18:07:03.960Z,102493.72
2022-10-06T18:09:32.128Z,102494.47
2022-10-06T18:12:00.231Z,102493.47
2022-10-06T18:14:35.001Z,102494.38
2022-10-06T18:17:04.048Z,102500.50
2022-10-06T18:19:33.915Z,102499.44
2022-10-06T18:22:10.645Z,102499.31
2022-10-06T18:24:39.042Z,102499.19
2022-10-06T18:27:08.213Z,102492.88
2022-10-06T18:29:38.679Z,102496.41
2022-10-06T18:37:44.869Z,102496.84
2022-10-06T18:40:15.333Z,102497.81
2022-10-06T18:42:44.260Z,102489.13
2022-10-06T18:45:35.519Z,102499.81
2022-10-06T18:48:25.091Z,102494.31
2022-10-06T18:51:00.012Z,102488.88
2022-10-06T18:53:35.772Z,102492.44
2022-10-06T18:56:07.301Z,102498.56
2022-10-06T18:58:41.443Z,102492.28
2022-10-06T19:01:11.263Z,102490.50
2022-10-06T19:03:39.096Z,102497.31
2022-10-06T19:06:08.022Z,102496.53
2022-10-06T19:08:36.393Z,102492.78
2022-10-06T19:11:24.172Z,102490.94
2022-10-06T19:13:53.700Z,102498.81
2022-10-06T19:16:21.211Z,102493.38
2022-10-06T19:18:49.653Z,102488.88
2022-10-06T19:21:17.067Z,102488.13
2022-10-06T19:23:47.024Z,102488.03
2022-10-06T19:26:14.525Z,102488.66
2022-10-06T19:28:42.839Z,102493.53
2022-10-06T19:31:14.984Z,102489.00
2022-10-06T19:33:43.807Z,102489.75
2022-10-06T19:36:11.410Z,102495.56
2022-10-06T19:38:40.450Z,102487.44
2022-10-06T19:41:26.702Z,102490.66
2022-10-06T19:43:55.003Z,102490.41
2022-10-06T19:46:22.840Z,102492.88
2022-10-06T19:48:55.110Z,102500.56
2022-10-06T19:51:25.165Z,102497.09
2022-10-06T19:53:52.605Z,102495.28
2022-10-06T19:56:26.012Z,102502.09
2022-10-06T19:58:54.631Z,102496.69
2022-10-06T20:01:22.156Z,102500.09
2022-10-06T20:03:50.593Z,102498.78
2022-10-06T20:06:18.395Z,102499.41
2022-10-06T20:08:47.239Z,102503.59
2022-10-06T20:11:18.209Z,102503.38
2022-10-06T20:13:46.092Z,102503.19
2022-10-06T20:16:17.361Z,102500.91
2022-10-06T20:18:47.883Z,102501.50
2022-10-06T20:21:21.505Z,102495.19
2022-10-06T20:23:55.155Z,102500.88
2022-10-06T20:26:25.541Z,102487.81
2022-10-06T20:28:53.867Z,102493.09
2022-10-06T20:31:25.653Z,102486.13
2022-10-06T20:33:58.236Z,102487.78
2022-10-06T20:36:30.852Z,102489.13
2022-10-06T20:39:17.098Z,102489.00
2022-10-06T20:41:45.334Z,102484.31
2022-10-06T20:44:13.725Z,102483.41
2022-10-06T20:46:42.255Z,102474.50
2022-10-06T20:49:13.992Z,102474.25
2022-10-06T20:51:46.629Z,102482.19
2022-10-06T20:54:16.733Z,102484.84
2022-10-06T20:56:44.289Z,102474.22
2022-10-06T20:59:47.687Z,102476.78
2022-10-06T21:02:15.242Z,102474.84
2022-10-06T21:04:43.722Z,102476.47
2022-10-06T21:07:12.110Z,102476.25
2022-10-06T21:09:40.385Z,102470.84
2022-10-06T21:12:08.038Z,102476.09
2022-10-06T21:14:38.799Z,102473.03
2022-10-06T21:17:07.259Z,102466.59
2022-10-06T21:19:38.067Z,102463.88
2022-10-06T21:22:05.655Z,102469.09
2022-10-06T21:24:33.256Z,102462.81
2022-10-06T21:27:03.201Z,102460.91
2022-10-06T21:29:30.579Z,102462.63
2022-10-06T21:31:58.056Z,102466.94
2022-10-06T21:34:25.500Z,102462.50
2022-10-06T21:36:53.602Z,102461.69
2022-10-06T21:39:21.313Z,102457.22
2022-10-06T21:41:48.735Z,102455.41
2022-10-06T21:44:17.193Z,102457.00
2022-10-06T21:46:52.947Z,102450.91
2022-10-06T21:49:24.875Z,102449.81
2022-10-06T21:51:56.284Z,102443.28
2022-10-06T21:54:24.401Z,102444.63
2022-10-06T21:56:51.823Z,102451.44
2022-10-06T21:59:20.360Z,102443.59
2022-10-06T22:01:49.784Z,102439.16
2022-10-06T22:04:17.781Z,102445.03
2022-10-06T22:06:50.197Z,102441.00
2022-10-06T22:09:19.921Z,102438.19
2022-10-06T22:11:47.465Z,102430.25
2022-10-06T22:14:17.203Z,102430.13
2022-10-06T22:16:44.892Z,102435.34
2022-10-06T22:19:14.975Z,102434.44
2022-10-06T22:21:45.604Z,102433.41
2022-10-06T22:24:16.041Z,102434.81
2022-10-06T22:26:44.313Z,102426.00
2022-10-06T22:29:15.142Z,102432.78
2022-10-06T22:31:46.729Z,102415.38
2022-10-06T22:34:18.943Z,102420.38
2022-10-06T22:36:46.792Z,102420.38
2022-10-06T22:39:16.332Z,102415.03
2022-10-06T22:41:44.946Z,102415.03
2022-10-06T22:44:15.885Z,102410.50
2022-10-06T22:46:44.321Z,102411.38
2022-10-06T22:49:12.945Z,102400.03
2022-10-06T22:51:40.334Z,102404.47
2022-10-06T22:54:16.532Z,102402.69
2022-10-06T22:56:45.503Z,102401.63
2022-10-06T22:59:13.726Z,102400.50
2022-10-06T23:01:41.225Z,102392.41
2022-10-06T23:04:08.404Z,102396.56
2022-10-06T23:06:36.611Z,102391.25
2022-10-06T23:09:04.723Z,102383.50
2022-10-06T23:11:33.393Z,102379.16
2022-10-06T23:14:00.767Z,102387.75
2022-10-06T23:16:29.370Z,102376.31
2022-10-06T23:18:57.716Z,102378.34
2022-10-06T23:21:27.814Z,102375.94
2022-10-06T23:23:59.374Z,102375.69
2022-10-06T23:26:28.579Z,102373.28
2022-10-06T23:28:58.771Z,102369.56
2022-10-06T23:31:28.474Z,102371.25
2022-10-06T23:33:56.012Z,102365.00
2022-10-06T23:36:23.979Z,102364.72
2022-10-06T23:38:55.022Z,102366.50
2022-10-06T23:41:23.424Z,102362.19
2022-10-06T23:43:50.861Z,102356.81
2022-10-06T23:46:19.191Z,102357.47
2022-10-06T23:48:46.606Z,102348.69
2022-10-06T23:51:16.812Z,102347.53
2022-10-06T23:53:46.410Z,102350.91
2022-10-06T23:56:14.853Z,102353.22
2022-10-06T23:58:42.620Z,102352.13
